Terminal Aerodrome Forecast
Issued by NWS

Home | Current Version | Previous Version | Text Only | Print | Product List | Glossary On
Versions: 1 2 3 4 5 6 7 8 9 10 11 12 13 14
000
FTUS43 KAPX 012327
TAFTVC
TAF
KTVC 012327Z 0200/0224 28009KT P6SM FEW060
     FM020100 24004KT P6SM FEW070
     FM021300 20006KT P6SM VCSH BKN120
     FM021600 21008KT 6SM -TSRA OVC050CB
     FM022000 27008KT P6SM SCT020 BKN040=

USA.gov is the U.S. government's official web portal to all federal, state and local government web resources and services.